createdAt,value
2018-03-21T00:00:54.609Z,-3.80
2018-03-21T00:03:21.764Z,-4.00
2018-03-21T00:05:48.148Z,-4.00
2018-03-21T00:08:14.552Z,-3.90
2018-03-21T00:10:41.050Z,-3.90
2018-03-21T00:13:08.160Z,-4.00
2018-03-21T00:15:34.541Z,-4.00
2018-03-21T00:18:00.979Z,-3.80
2018-03-21T00:20:27.467Z,-3.60
2018-03-21T00:22:53.842Z,-3.50
2018-03-21T00:25:20.228Z,-3.50
2018-03-21T00:27:47.576Z,-3.50
2018-03-21T00:30:13.960Z,-3.50
2018-03-21T00:32:40.335Z,-3.50
2018-03-21T00:35:06.729Z,-3.50
2018-03-21T00:37:33.136Z,-3.60
2018-03-21T00:40:00.265Z,-3.50
2018-03-21T00:42:26.663Z,-3.50
2018-03-21T00:44:53.049Z,-3.40
2018-03-21T00:47:20.212Z,-3.50
2018-03-21T00:49:47.330Z,-3.50
2018-03-21T00:52:13.708Z,-3.50
2018-03-21T00:54:40.109Z,-3.50
2018-03-21T00:57:07.229Z,-3.50
2018-03-21T00:59:33.722Z,-3.60
2018-03-21T01:02:00.111Z,-3.60
2018-03-21T01:04:27.248Z,-3.60
2018-03-21T01:06:53.616Z,-3.60
2018-03-21T01:09:20.728Z,-3.60
2018-03-21T01:11:47.105Z,-3.60
2018-03-21T01:14:13.474Z,-3.60
2018-03-21T01:16:39.865Z,-3.60
2018-03-21T01:19:06.237Z,-3.70
2018-03-21T01:21:32.624Z,-3.60
2018-03-21T01:23:59.935Z,-3.80
2018-03-21T01:26:26.316Z,-3.80
2018-03-21T01:28:52.689Z,-3.80
2018-03-21T01:31:19.094Z,-3.80
2018-03-21T01:33:45.467Z,-3.80
2018-03-21T01:36:11.885Z,-3.70
2018-03-21T01:38:38.435Z,-3.60
2018-03-21T01:41:04.843Z,-3.40
2018-03-21T01:43:31.218Z,-3.30
2018-03-21T01:45:58.388Z,-3.10
2018-03-21T01:48:24.782Z,-3.20
2018-03-21T01:50:51.155Z,-3.10
2018-03-21T01:53:17.555Z,-3.00
2018-03-21T01:55:44.666Z,-3.00
2018-03-21T01:58:11.060Z,-3.10
2018-03-21T02:00:37.483Z,-2.90
2018-03-21T02:03:04.588Z,-2.90
2018-03-21T02:05:31.138Z,-2.90
2018-03-21T02:07:57.542Z,-2.70
2018-03-21T02:10:23.908Z,-2.70
2018-03-21T02:12:51.034Z,-2.50
2018-03-21T02:15:17.424Z,-2.50
2018-03-21T02:17:43.815Z,-2.50
2018-03-21T02:20:10.183Z,-2.50
2018-03-21T02:22:36.571Z,-2.50
2018-03-21T02:25:02.943Z,-2.40
2018-03-21T02:27:29.340Z,-2.40
2018-03-21T02:29:57.223Z,-2.30
2018-03-21T02:32:24.365Z,-2.20
2018-03-21T02:34:51.500Z,-2.20
2018-03-21T02:37:18.664Z,-2.20
2018-03-21T02:39:45.035Z,-2.20
2018-03-21T02:42:11.657Z,-2.20
2018-03-21T02:44:38.061Z,-2.20
2018-03-21T02:47:04.449Z,-2.20
2018-03-21T02:49:30.904Z,-2.20
2018-03-21T02:51:57.275Z,-2.10
2018-03-21T02:54:24.388Z,-2.00
2018-03-21T02:56:50.805Z,-2.00
2018-03-21T02:59:17.171Z,-1.90
2018-03-21T03:01:43.583Z,-1.90
2018-03-21T03:04:09.947Z,-1.90
2018-03-21T03:06:37.079Z,-1.80
2018-03-21T03:09:04.439Z,-1.80
2018-03-21T03:11:31.587Z,-1.60
2018-03-21T03:13:57.965Z,-1.60
2018-03-21T03:16:24.334Z,-1.50
2018-03-21T03:18:50.704Z,-1.40
2018-03-21T03:21:17.844Z,-1.20
2018-03-21T03:23:44.960Z,-1.10
2018-03-21T03:26:11.334Z,-1.20
2018-03-21T03:28:37.727Z,-1.20
2018-03-21T03:31:04.142Z,-1.20
2018-03-21T03:33:30.559Z,-1.40
2018-03-21T03:35:56.975Z,-1.20
2018-03-21T03:38:23.379Z,-1.20
2018-03-21T03:40:50.528Z,-1.00
2018-03-21T03:43:17.795Z,-1.00
2018-03-21T03:45:44.191Z,-1.00
2018-03-21T03:48:10.575Z,-1.00
2018-03-21T03:50:36.963Z,-1.00
2018-03-21T03:53:03.362Z,-1.00
2018-03-21T03:55:29.773Z,-1.10
2018-03-21T03:57:56.164Z,-1.10
2018-03-21T04:00:22.592Z,-1.20
2018-03-21T04:02:49.006Z,-1.30
2018-03-21T04:05:15.408Z,-1.40
2018-03-21T04:07:41.802Z,-1.50
2018-03-21T04:10:08.929Z,-1.70
2018-03-21T04:12:36.806Z,-1.70
2018-03-21T04:15:03.244Z,-1.70
2018-03-21T04:17:29.640Z,-1.80
2018-03-21T04:19:56.015Z,-1.90
2018-03-21T04:22:23.179Z,-2.00
2018-03-21T04:24:50.301Z,-2.00
2018-03-21T04:27:18.179Z,-2.00
2018-03-21T04:29:45.361Z,-1.90
2018-03-21T04:32:11.748Z,-2.00
2018-03-21T04:34:38.884Z,-1.80
2018-03-21T04:37:06.800Z,-1.70
2018-03-21T04:39:33.175Z,-1.70
2018-03-21T04:41:59.571Z,-1.40
2018-03-21T04:44:25.969Z,-1.20
2018-03-21T04:46:53.217Z,-1.10
2018-03-21T04:49:20.401Z,-1.10
2018-03-21T04:51:46.788Z,-1.10
2018-03-21T04:54:14.703Z,-0.90
2018-03-21T04:56:41.097Z,-1.00
2018-03-21T04:59:08.248Z,-0.90
2018-03-21T05:01:35.586Z,-1.00
2018-03-21T05:04:03.509Z,-1.10
2018-03-21T05:06:29.928Z,-1.00
2018-03-21T05:08:56.315Z,-0.90
2018-03-21T05:11:22.731Z,-0.90
2018-03-21T05:13:49.120Z,-0.90
2018-03-21T05:16:15.503Z,-0.80
2018-03-21T05:18:41.891Z,-0.80
2018-03-21T05:21:08.285Z,-0.80
2018-03-21T05:23:34.661Z,-0.80
2018-03-21T05:26:01.088Z,-0.70
2018-03-21T05:28:27.489Z,-0.70
2018-03-21T05:30:53.890Z,-0.70
2018-03-21T05:33:20.287Z,-0.80
2018-03-21T05:35:46.678Z,-0.80
2018-03-21T05:38:13.871Z,-0.70
2018-03-21T05:40:40.256Z,-0.70
2018-03-21T05:43:06.635Z,-0.60
2018-03-21T05:45:33.031Z,-0.50
2018-03-21T05:47:59.469Z,-0.30
2018-03-21T05:50:26.609Z,-0.10
2018-03-21T05:52:53.009Z,-0.10
2018-03-21T05:55:19.446Z,0.00
2018-03-21T05:57:45.828Z,0.20
2018-03-21T06:00:12.989Z,0.60
2018-03-21T06:02:39.391Z,0.50
2018-03-21T06:05:05.774Z,0.70
2018-03-21T06:07:32.174Z,0.60
2018-03-21T06:09:59.307Z,0.60
2018-03-21T06:12:25.750Z,0.60
2018-03-21T06:14:52.877Z,0.40
2018-03-21T06:17:19.259Z,0.40
2018-03-21T06:19:45.691Z,0.40
2018-03-21T06:22:12.081Z,0.60
2018-03-21T06:24:38.483Z,0.80
2018-03-21T06:27:04.890Z,0.70
2018-03-21T06:29:31.287Z,0.80
2018-03-21T06:31:58.403Z,0.60
2018-03-21T06:34:24.776Z,0.50
2018-03-21T06:36:51.906Z,0.90
2018-03-21T06:39:19.049Z,1.00
2018-03-21T06:41:45.500Z,1.00
2018-03-21T06:44:12.671Z,1.40
2018-03-21T06:46:39.082Z,1.30
2018-03-21T06:49:06.349Z,1.50
2018-03-21T06:51:32.741Z,1.50
2018-03-21T06:53:59.161Z,1.60
2018-03-21T06:56:25.566Z,1.90
2018-03-21T06:58:51.962Z,2.00
2018-03-21T07:01:19.098Z,2.10
2018-03-21T07:03:45.476Z,2.10
2018-03-21T07:06:11.870Z,2.20
2018-03-21T07:08:38.989Z,2.20
2018-03-21T07:11:05.391Z,2.20
2018-03-21T07:13:43.941Z,2.30
2018-03-21T07:16:22.547Z,2.40
2018-03-21T07:18:48.940Z,2.40
2018-03-21T07:21:15.347Z,2.30
2018-03-21T07:23:42.520Z,2.40
2018-03-21T07:26:08.920Z,2.40
2018-03-21T07:28:35.327Z,2.40
2018-03-21T07:31:01.737Z,2.30
2018-03-21T07:33:28.847Z,2.30
2018-03-21T07:35:56.729Z,2.10
2018-03-21T07:38:23.862Z,2.10
2018-03-21T07:40:51.719Z,2.00
2018-03-21T07:43:18.106Z,2.00
2018-03-21T07:45:44.641Z,1.80
2018-03-21T07:48:11.026Z,1.50
2018-03-21T07:50:38.211Z,1.20
2018-03-21T07:53:04.633Z,1.20
2018-03-21T07:55:31.797Z,1.40
2018-03-21T07:57:58.184Z,1.30
2018-03-21T08:00:24.580Z,1.50
2018-03-21T08:02:50.967Z,1.60
2018-03-21T08:05:18.106Z,1.20
2018-03-21T08:07:44.471Z,1.20
2018-03-21T08:10:10.866Z,1.20
2018-03-21T08:12:37.254Z,0.80
2018-03-21T08:15:03.658Z,0.50
2018-03-21T08:17:30.126Z,0.40
2018-03-21T08:19:56.568Z,0.20
2018-03-21T08:22:22.953Z,0.20
2018-03-21T08:24:49.360Z,0.70
2018-03-21T08:27:16.504Z,1.30
2018-03-21T08:29:42.904Z,1.30
2018-03-21T08:32:09.342Z,1.50
2018-03-21T08:34:36.533Z,1.40
2018-03-21T08:37:03.667Z,1.50
2018-03-21T08:39:30.086Z,1.50
2018-03-21T08:41:56.493Z,1.60
2018-03-21T08:44:22.881Z,1.80
2018-03-21T08:46:50.041Z,2.00
2018-03-21T08:49:16.463Z,2.00
2018-03-21T08:51:43.623Z,1.90
2018-03-21T08:54:10.888Z,1.70
2018-03-21T08:56:50.620Z,1.70
2018-03-21T08:59:31.482Z,2.10
2018-03-21T09:02:09.426Z,2.10
2018-03-21T09:04:35.855Z,2.10
2018-03-21T09:07:02.313Z,2.20
2018-03-21T09:09:28.696Z,2.80
2018-03-21T09:11:55.104Z,3.50
2018-03-21T09:14:21.500Z,3.60
2018-03-21T09:16:48.003Z,3.80
2018-03-21T09:19:14.407Z,3.90
2018-03-21T09:21:41.541Z,3.70
2018-03-21T09:24:07.960Z,3.70
2018-03-21T09:26:34.335Z,3.80
2018-03-21T09:29:01.461Z,3.70
2018-03-21T09:31:29.337Z,3.50
2018-03-21T09:33:56.495Z,3.70
2018-03-21T09:36:23.673Z,3.40
2018-03-21T09:38:50.082Z,3.40
2018-03-21T09:41:17.228Z,2.80
2018-03-21T09:43:44.436Z,2.40
2018-03-21T09:46:10.874Z,2.40
2018-03-21T09:48:37.302Z,2.30
2018-03-21T09:51:03.724Z,2.10
2018-03-21T09:53:30.121Z,2.20
2018-03-21T09:55:56.512Z,2.20
2018-03-21T09:58:22.903Z,2.30
2018-03-21T10:00:50.016Z,2.50
2018-03-21T10:03:17.143Z,2.60
2018-03-21T10:05:45.017Z,2.40
2018-03-21T10:08:12.156Z,3.30
2018-03-21T10:10:38.574Z,3.30
2018-03-21T10:13:04.975Z,3.40
2018-03-21T10:15:31.406Z,3.00
2018-03-21T10:17:57.782Z,2.60
2018-03-21T10:20:24.187Z,2.30
2018-03-21T10:22:50.601Z,2.10
2018-03-21T10:25:17.016Z,2.00
2018-03-21T10:27:44.162Z,3.20
2018-03-21T10:30:11.305Z,2.90
2018-03-21T10:32:38.469Z,2.80
2018-03-21T10:35:04.874Z,2.80
2018-03-21T10:37:31.288Z,2.60
2018-03-21T10:39:57.676Z,2.40
2018-03-21T10:42:24.068Z,2.40
2018-03-21T10:44:50.498Z,2.60
2018-03-21T10:47:17.667Z,3.90
2018-03-21T10:49:44.843Z,4.50
2018-03-21T10:52:11.381Z,4.50
2018-03-21T10:54:37.825Z,4.20
2018-03-21T10:57:04.242Z,3.90
2018-03-21T10:59:30.695Z,4.20
2018-03-21T11:02:03.204Z,4.90
2018-03-21T11:04:29.685Z,5.10
2018-03-21T11:06:56.080Z,5.50
2018-03-21T11:09:23.246Z,5.40
2018-03-21T11:11:50.484Z,5.20
2018-03-21T11:14:16.973Z,5.20
2018-03-21T11:16:43.396Z,4.70
2018-03-21T11:19:09.869Z,4.80
2018-03-21T11:21:36.246Z,4.60
2018-03-21T11:24:02.699Z,4.40
2018-03-21T11:26:29.094Z,4.30
2018-03-21T11:28:56.265Z,4.70
2018-03-21T11:31:22.652Z,4.70
2018-03-21T11:33:49.055Z,3.90
2018-03-21T11:36:15.459Z,3.50
2018-03-21T11:38:41.860Z,3.30
2018-03-21T11:41:09.741Z,3.10
2018-03-21T11:43:36.930Z,3.20
2018-03-21T11:46:03.372Z,3.20
2018-03-21T11:48:29.778Z,3.60
2018-03-21T11:50:56.166Z,4.10
2018-03-21T11:53:24.051Z,5.10
2018-03-21T11:55:51.193Z,4.90
2018-03-21T11:58:18.343Z,4.40
2018-03-21T12:00:45.478Z,3.60
2018-03-21T12:03:11.873Z,3.60
2018-03-21T12:05:38.289Z,3.60
2018-03-21T12:08:04.713Z,4.10
2018-03-21T12:10:31.113Z,4.60
2018-03-21T12:12:57.537Z,4.90
2018-03-21T12:15:24.684Z,3.90
2018-03-21T12:17:51.102Z,3.80
2018-03-21T12:20:17.515Z,3.30
2018-03-21T12:22:43.911Z,3.10
2018-03-21T12:25:10.369Z,3.30
2018-03-21T12:27:36.753Z,4.40
2018-03-21T12:30:03.176Z,4.30
2018-03-21T12:32:31.048Z,4.60
2018-03-21T12:34:57.446Z,4.60
2018-03-21T12:37:23.829Z,4.10
2018-03-21T12:39:50.965Z,3.50
2018-03-21T12:42:17.360Z,3.50
2018-03-21T12:44:43.812Z,3.30
2018-03-21T12:47:10.151Z,3.50
2018-03-21T12:49:36.539Z,4.20
2018-03-21T12:52:02.924Z,5.00
2018-03-21T12:54:29.331Z,5.30
2018-03-21T12:56:55.727Z,5.10
2018-03-21T12:59:22.879Z,5.20
2018-03-21T13:01:49.289Z,5.10
2018-03-21T13:04:16.405Z,6.00
2018-03-21T13:06:42.797Z,6.00
2018-03-21T13:09:09.178Z,6.00
2018-03-21T13:11:35.539Z,5.80
2018-03-21T13:14:02.696Z,5.20
2018-03-21T13:16:29.104Z,5.20
2018-03-21T13:18:55.848Z,5.00
2018-03-21T13:21:22.976Z,4.70
2018-03-21T13:23:50.143Z,4.70
2018-03-21T13:26:17.267Z,4.80
2018-03-21T13:28:43.657Z,4.70
2018-03-21T13:31:10.373Z,4.90
2018-03-21T13:33:37.521Z,4.80
2018-03-21T13:36:04.701Z,4.90
2018-03-21T13:38:31.089Z,4.90
2018-03-21T13:40:57.476Z,5.10
2018-03-21T13:43:23.868Z,5.00
2018-03-21T13:45:51.025Z,4.50
2018-03-21T13:48:18.202Z,4.60
2018-03-21T13:50:44.595Z,4.60
2018-03-21T13:53:11.037Z,4.40
2018-03-21T13:55:38.160Z,4.50
2018-03-21T13:58:04.554Z,4.50
2018-03-21T14:00:30.975Z,4.50
2018-03-21T14:02:57.370Z,4.20
2018-03-21T14:05:24.529Z,4.50
2018-03-21T14:07:50.918Z,4.50
2018-03-21T14:10:17.316Z,4.30
2018-03-21T14:12:43.752Z,4.10
2018-03-21T14:15:10.159Z,4.20
2018-03-21T14:17:37.323Z,4.00
2018-03-21T14:20:04.515Z,3.90
2018-03-21T14:22:30.925Z,3.90
2018-03-21T14:24:57.322Z,3.90
2018-03-21T14:27:24.480Z,4.10
2018-03-21T14:29:51.643Z,4.30
2018-03-21T14:32:18.051Z,4.20
2018-03-21T14:34:45.207Z,4.10
2018-03-21T14:37:12.358Z,3.90
2018-03-21T14:39:39.579Z,3.80
2018-03-21T14:42:06.033Z,3.80
2018-03-21T14:44:32.434Z,3.70
2018-03-21T14:46:58.835Z,3.80
2018-03-21T14:49:25.303Z,4.00
2018-03-21T14:51:51.653Z,4.10
2018-03-21T14:54:18.077Z,4.10
2018-03-21T14:56:44.465Z,4.00
2018-03-21T14:59:10.864Z,3.60
2018-03-21T15:01:38.012Z,3.50
2018-03-21T15:04:04.459Z,3.50
2018-03-21T15:06:30.864Z,3.50
2018-03-21T15:08:57.247Z,3.60
2018-03-21T15:11:23.658Z,3.60
2018-03-21T15:13:50.056Z,3.70
2018-03-21T15:16:16.477Z,3.70
2018-03-21T15:18:44.452Z,3.40
2018-03-21T15:21:10.870Z,3.40
2018-03-21T15:23:37.273Z,3.30
2018-03-21T15:26:03.679Z,3.30
2018-03-21T15:28:30.139Z,3.40
2018-03-21T15:30:56.575Z,3.50
2018-03-21T15:33:22.968Z,3.70
2018-03-21T15:35:49.340Z,3.80
2018-03-21T15:38:15.753Z,3.90
2018-03-21T15:40:43.160Z,4.00
2018-03-21T15:43:09.597Z,4.10
2018-03-21T15:45:36.063Z,4.00
2018-03-21T15:48:03.265Z,3.80
2018-03-21T15:50:29.672Z,3.80
2018-03-21T15:52:56.104Z,3.80
2018-03-21T15:55:22.474Z,3.70
2018-03-21T15:57:48.848Z,3.70
2018-03-21T16:00:15.272Z,3.80
2018-03-21T16:02:42.379Z,3.80
2018-03-21T16:05:08.807Z,3.80
2018-03-21T16:07:35.192Z,3.70
2018-03-21T16:10:02.359Z,3.70
2018-03-21T16:12:28.749Z,3.70
2018-03-21T16:14:56.638Z,3.10
2018-03-21T16:17:23.778Z,3.10
2018-03-21T16:19:50.159Z,3.00
2018-03-21T16:22:16.529Z,3.00
2018-03-21T16:24:42.916Z,3.00
2018-03-21T16:27:09.310Z,3.00
2018-03-21T16:29:35.768Z,3.10
2018-03-21T16:32:02.186Z,3.20
2018-03-21T16:34:29.447Z,3.30
2018-03-21T16:36:56.608Z,3.20
2018-03-21T16:39:22.975Z,3.20
2018-03-21T16:41:49.350Z,3.10
2018-03-21T16:44:16.552Z,3.00
2018-03-21T16:46:42.945Z,2.90
2018-03-21T16:49:09.412Z,2.90
2018-03-21T16:51:35.794Z,2.90
2018-03-21T16:54:02.977Z,3.00
2018-03-21T16:56:29.391Z,2.90
2018-03-21T16:58:56.542Z,2.80
2018-03-21T17:01:22.974Z,2.70
2018-03-21T17:03:49.368Z,2.70
2018-03-21T17:06:15.812Z,2.50
2018-03-21T17:08:42.205Z,2.40
2018-03-21T17:11:08.592Z,2.40
2018-03-21T17:13:35.716Z,2.40
2018-03-21T17:16:02.125Z,2.30
2018-03-21T17:18:28.498Z,2.30
2018-03-21T17:20:55.624Z,2.10
2018-03-21T17:23:21.997Z,2.10
2018-03-21T17:25:48.413Z,2.00
2018-03-21T17:28:14.954Z,2.00
2018-03-21T17:30:41.336Z,1.90
2018-03-21T17:33:07.748Z,1.70
2018-03-21T17:35:34.136Z,1.70
2018-03-21T17:38:00.573Z,1.70
2018-03-21T17:40:27.719Z,1.50
2018-03-21T17:42:54.844Z,1.40
2018-03-21T17:45:21.235Z,1.40
2018-03-21T17:47:47.724Z,1.40
2018-03-21T17:50:14.116Z,1.30
2018-03-21T17:52:40.516Z,1.20
2018-03-21T17:55:07.706Z,1.20
2018-03-21T17:57:34.102Z,1.20
2018-03-21T18:00:00.504Z,1.20
2018-03-21T18:02:27.654Z,1.20
2018-03-21T18:04:54.811Z,1.20
2018-03-21T18:07:21.982Z,1.00
2018-03-21T18:09:48.336Z,1.00
2018-03-21T18:12:14.712Z,1.00
2018-03-21T18:14:41.120Z,1.00
2018-03-21T18:17:07.516Z,1.00
2018-03-21T18:19:33.936Z,1.10
2018-03-21T18:22:01.057Z,0.90
2018-03-21T18:24:28.174Z,0.70
2018-03-21T18:26:54.590Z,0.60
2018-03-21T18:29:20.984Z,0.60
2018-03-21T18:31:47.377Z,0.60
2018-03-21T18:34:13.774Z,0.40
2018-03-21T18:36:40.183Z,0.30
2018-03-21T18:39:07.376Z,0.40
2018-03-21T18:41:33.824Z,0.40
2018-03-21T18:44:00.256Z,0.50
2018-03-21T18:46:26.657Z,0.50
2018-03-21T18:48:53.046Z,0.50
2018-03-21T18:51:19.488Z,0.50
2018-03-21T18:53:45.883Z,0.40
2018-03-21T18:56:12.283Z,0.20
2018-03-21T18:58:38.720Z,0.30
2018-03-21T19:01:05.147Z,0.40
2018-03-21T19:03:31.534Z,0.30
2018-03-21T19:05:58.009Z,0.40
2018-03-21T19:08:24.423Z,0.40
2018-03-21T19:10:51.547Z,0.10
2018-03-21T19:13:20.149Z,0.10
2018-03-21T19:15:44.410Z,0.00
2018-03-21T19:18:10.799Z,0.00
2018-03-21T19:20:37.311Z,0.00
2018-03-21T19:23:03.734Z,-0.20
2018-03-21T19:25:30.895Z,-0.30
2018-03-21T19:27:58.066Z,-0.50
2018-03-21T19:30:24.504Z,-0.50
2018-03-21T19:32:50.906Z,-0.50
2018-03-21T19:35:18.050Z,-0.20
2018-03-21T19:37:44.443Z,-0.20
2018-03-21T19:40:10.873Z,-0.10
2018-03-21T19:42:37.278Z,-0.40
2018-03-21T19:45:03.717Z,-0.40
2018-03-21T19:47:30.107Z,-0.40
2018-03-21T19:49:57.251Z,-0.60
2018-03-21T19:52:23.651Z,-0.60
2018-03-21T19:54:50.061Z,-0.70
2018-03-21T19:57:16.469Z,-0.60
2018-03-21T19:59:42.946Z,-0.50
2018-03-21T20:02:09.360Z,-0.50
2018-03-21T20:04:35.761Z,-0.60
2018-03-21T20:07:02.923Z,-0.40
2018-03-21T20:09:29.335Z,-0.40
2018-03-21T20:11:56.485Z,-0.70
2018-03-21T20:14:23.683Z,-0.80
2018-03-21T20:16:50.115Z,-0.80
2018-03-21T20:19:17.265Z,-0.80
2018-03-21T20:21:43.671Z,-0.80
2018-03-21T20:24:10.096Z,-1.00
2018-03-21T20:26:36.494Z,-1.10
2018-03-21T20:29:02.923Z,-1.20
2018-03-21T20:31:29.324Z,-1.20
2018-03-21T20:33:55.720Z,-1.40
2018-03-21T20:36:22.844Z,-1.30
2018-03-21T20:38:49.304Z,-1.30
2018-03-21T20:41:16.460Z,-1.20
2018-03-21T20:43:43.601Z,-1.20
2018-03-21T20:46:10.735Z,-1.20
2018-03-21T20:48:37.149Z,-1.20
2018-03-21T20:51:03.586Z,-1.20
2018-03-21T20:53:29.961Z,-1.40
2018-03-21T20:55:57.094Z,-1.70
2018-03-21T20:58:23.490Z,-1.70
2018-03-21T21:00:49.908Z,-1.70
2018-03-21T21:03:16.316Z,-1.70
2018-03-21T21:05:42.864Z,-1.60
2018-03-21T21:08:09.244Z,-1.70
2018-03-21T21:10:35.619Z,-1.90
2018-03-21T21:13:02.002Z,-1.90
2018-03-21T21:15:28.476Z,-2.10
2018-03-21T21:17:54.891Z,-2.10
2018-03-21T21:20:22.094Z,-2.20
2018-03-21T21:22:48.474Z,-2.20
2018-03-21T21:25:15.620Z,-2.30
2018-03-21T21:27:42.755Z,-2.30
2018-03-21T21:30:09.137Z,-2.30
2018-03-21T21:32:35.545Z,-2.30
2018-03-21T21:35:02.715Z,-2.20
2018-03-21T21:37:29.162Z,-2.20
2018-03-21T21:39:55.626Z,-2.30
2018-03-21T21:42:22.060Z,-2.40
2018-03-21T21:44:49.263Z,-2.50
2018-03-21T21:47:15.740Z,-2.50
2018-03-21T21:49:42.501Z,-2.50
2018-03-21T21:52:09.631Z,-2.60
2018-03-21T21:54:36.024Z,-2.60
2018-03-21T21:57:02.441Z,-2.70
2018-03-21T21:59:28.824Z,-2.70
2018-03-21T22:01:55.225Z,-2.70
2018-03-21T22:04:21.629Z,-2.80
2018-03-21T22:06:48.750Z,-2.80
2018-03-21T22:09:15.186Z,-2.80
2018-03-21T22:11:41.572Z,-2.80
2018-03-21T22:14:08.118Z,-2.80
2018-03-21T22:16:34.524Z,-2.70
2018-03-21T22:19:00.912Z,-2.60
2018-03-21T22:21:27.291Z,-2.60
2018-03-21T22:23:53.687Z,-2.60
2018-03-21T22:26:20.063Z,-2.50
2018-03-21T22:28:46.451Z,-2.60
2018-03-21T22:31:13.581Z,-2.60
2018-03-21T22:33:40.067Z,-2.70
2018-03-21T22:36:06.486Z,-2.80
2018-03-21T22:38:33.617Z,-2.70
2018-03-21T22:41:00.753Z,-2.80
2018-03-21T22:43:27.914Z,-2.80
2018-03-21T22:45:55.036Z,-2.80
2018-03-21T22:48:21.436Z,-2.80
2018-03-21T22:50:47.821Z,-2.80
2018-03-21T22:53:14.196Z,-2.60
2018-03-21T22:55:40.592Z,-2.60
2018-03-21T22:58:07.735Z,-2.70
2018-03-21T23:00:34.863Z,-2.70
2018-03-21T23:03:01.252Z,-2.70
2018-03-21T23:05:27.654Z,-2.80
2018-03-21T23:07:54.852Z,-2.90
2018-03-21T23:10:21.247Z,-2.90
2018-03-21T23:12:48.366Z,-2.80
2018-03-21T23:15:14.819Z,-2.80
2018-03-21T23:17:41.967Z,-2.90
2018-03-21T23:20:08.335Z,-2.90
2018-03-21T23:22:34.714Z,-2.90
2018-03-21T23:25:01.095Z,-2.90
2018-03-21T23:27:27.532Z,-2.80
2018-03-21T23:29:53.930Z,-2.70
2018-03-21T23:32:21.126Z,-2.80
2018-03-21T23:34:47.500Z,-2.80
2018-03-21T23:37:13.906Z,-2.70
2018-03-21T23:39:40.307Z,-2.70
2018-03-21T23:42:06.704Z,-2.70
2018-03-21T23:44:33.097Z,-2.70
2018-03-21T23:46:59.549Z,-2.80
2018-03-21T23:49:25.954Z,-2.70
2018-03-21T23:51:52.369Z,-2.60
2018-03-21T23:54:18.757Z,-2.60
2018-03-21T23:56:45.158Z,-2.70
2018-03-21T23:59:11.564Z,-2.80
